createdAt,value
2023-04-16T11:22:50.748Z,101578.16
2023-04-16T11:27:57.121Z,101576.81
2023-04-16T11:33:02.439Z,101577.50
2023-04-16T11:38:10.379Z,101569.59
2023-04-16T11:43:17.891Z,101577.72
2023-04-16T11:48:23.117Z,101573.31
2023-04-16T11:53:30.929Z,101581.06
2023-04-16T11:58:36.384Z,101576.72
2023-04-16T12:03:49.976Z,101570.41
2023-04-16T12:08:58.000Z,101575.88
2023-04-16T12:14:13.316Z,101573.44
2023-04-16T12:19:18.482Z,101585.03
2023-04-16T12:24:27.683Z,101582.03
2023-04-16T12:29:33.062Z,101583.75
2023-04-16T12:34:53.304Z,101578.59
2023-04-16T12:40:01.202Z,101577.84
2023-04-16T12:45:07.298Z,101576.19
2023-04-16T12:50:13.841Z,101578.72
2023-04-16T12:55:22.067Z,101579.47
2023-04-16T13:00:27.580Z,101564.19
2023-04-16T13:05:32.829Z,101567.34
2023-04-16T13:10:41.231Z,101571.88
2023-04-16T13:15:46.465Z,101563.94
2023-04-16T13:20:52.146Z,101565.72
2023-04-16T13:25:59.983Z,101569.19
2023-04-16T13:31:05.955Z,101566.94
2023-04-16T13:36:11.334Z,101570.13
2023-04-16T13:41:19.101Z,101567.19
2023-04-16T13:46:24.361Z,101564.34
2023-04-16T13:51:30.018Z,101565.19
2023-04-16T13:56:37.851Z,101574.72
2023-04-16T14:01:43.127Z,101563.94
2023-04-16T14:06:48.432Z,101564.88
2023-04-16T14:11:56.197Z,101573.34
2023-04-16T14:17:03.450Z,101568.16
2023-04-16T14:22:09.538Z,101570.00
2023-04-16T14:27:17.774Z,101570.28
2023-04-16T14:32:23.070Z,101569.31
2023-04-16T14:37:29.134Z,101562.38
2023-04-16T14:42:37.051Z,101571.00
2023-04-16T14:47:46.149Z,101570.16
2023-04-16T14:52:51.347Z,101569.16
2023-04-16T14:57:59.927Z,101567.94
2023-04-16T15:03:05.229Z,101560.53
2023-04-16T15:08:10.498Z,101557.19
2023-04-16T15:13:18.479Z,101556.13
2023-04-16T15:18:23.667Z,101545.97
2023-04-16T15:23:28.932Z,101551.31
2023-04-16T15:28:36.919Z,101542.28
2023-04-16T15:33:42.121Z,101546.00
2023-04-16T15:38:47.865Z,101547.25
2023-04-16T15:43:56.035Z,101549.84
2023-04-16T15:49:01.405Z,101555.44
2023-04-16T15:54:07.595Z,101553.06
2023-04-16T15:59:15.493Z,101545.25
2023-04-16T16:04:23.288Z,101552.41
2023-04-16T16:09:28.841Z,101560.69
2023-04-16T16:14:36.762Z,101559.31
2023-04-16T16:19:41.915Z,101550.09
2023-04-16T16:24:49.012Z,101561.47
2023-04-16T16:29:57.135Z,101557.03
2023-04-16T16:35:02.652Z,101558.66
2023-04-16T16:40:09.592Z,101557.84
2023-04-16T16:45:17.473Z,101557.75
2023-04-16T16:50:23.002Z,101558.59
2023-04-16T16:55:28.574Z,101568.69
2023-04-16T17:00:36.421Z,101561.31
2023-04-16T17:05:41.642Z,101565.97
2023-04-16T17:10:47.183Z,101559.19
2023-04-16T17:15:55.091Z,101566.28
2023-04-16T17:21:00.255Z,101573.44
2023-04-16T17:26:05.651Z,101578.88
2023-04-16T17:31:13.471Z,101579.97
2023-04-16T17:36:19.710Z,101589.75
2023-04-16T17:41:24.840Z,101589.22
2023-04-16T17:46:32.632Z,101593.78
2023-04-16T17:51:38.253Z,101605.28
2023-04-16T17:56:43.754Z,101610.56
2023-04-16T18:01:52.334Z,101615.09
2023-04-16T18:06:57.669Z,101622.22
2023-04-16T18:12:03.428Z,101625.81
2023-04-16T18:17:11.589Z,101626.75
2023-04-16T18:22:16.853Z,101624.25
2023-04-16T18:27:22.457Z,101630.34
2023-04-16T18:32:31.435Z,101631.28
2023-04-16T18:37:36.857Z,101646.00
2023-04-16T18:42:42.171Z,101647.78
2023-04-16T18:47:50.390Z,101656.41
2023-04-16T18:52:56.055Z,101658.16
2023-04-16T18:58:01.255Z,101663.38
2023-04-16T19:03:09.772Z,101663.41
2023-04-16T19:08:15.590Z,101668.59
2023-04-16T19:13:21.057Z,101666.91
2023-04-16T19:18:28.903Z,101684.94
2023-04-16T19:23:34.194Z,101679.78
2023-04-16T19:28:39.839Z,101672.00
2023-04-16T19:33:47.770Z,101675.44
2023-04-16T19:38:53.178Z,101688.31
2023-04-16T19:43:58.382Z,101684.91
2023-04-16T19:49:06.330Z,101684.91
2023-04-16T19:54:11.563Z,101688.38
2023-04-16T19:59:16.946Z,101690.16
2023-04-16T20:04:24.760Z,101697.91
2023-04-16T20:09:30.241Z,101691.06
2023-04-16T20:14:35.654Z,101697.97
2023-04-16T20:19:47.539Z,101692.00
2023-04-16T20:24:55.159Z,101699.78
2023-04-16T20:30:00.520Z,101692.06
2023-04-16T20:35:11.664Z,101700.69
2023-04-16T20:40:17.215Z,101693.88
2023-04-16T20:45:22.810Z,101685.25
2023-04-16T20:50:30.705Z,101704.19
2023-04-16T20:55:36.073Z,101692.16
2023-04-16T21:00:41.352Z,101683.56
2023-04-16T21:05:53.308Z,101696.47
2023-04-16T21:10:58.574Z,101687.06
2023-04-16T21:16:05.100Z,101691.34
2023-04-16T21:21:13.104Z,101693.06
2023-04-16T21:26:18.551Z,101699.09
2023-04-16T21:31:23.789Z,101697.34
2023-04-16T21:36:32.188Z,101693.94
2023-04-16T21:41:37.425Z,101695.63
2023-04-16T21:46:42.681Z,101693.09
2023-04-16T21:51:59.189Z,101688.81
2023-04-16T21:57:04.489Z,101692.25
2023-04-16T22:02:09.780Z,101692.25
2023-04-16T22:07:20.833Z,101698.25
2023-04-16T22:12:26.361Z,101696.56
2023-04-16T22:17:31.596Z,101689.69
2023-04-16T22:22:39.632Z,101695.72
2023-04-16T22:27:44.881Z,101694.88
